createdAt,value
2018-09-03T00:02:00.670Z,5.23
2018-09-03T00:04:29.022Z,5.47
2018-09-03T00:06:57.373Z,4.30
2018-09-03T00:09:25.766Z,4.53
2018-09-03T00:11:54.159Z,5.73
2018-09-03T00:14:22.482Z,6.20
2018-09-03T00:16:50.833Z,5.37
2018-09-03T00:19:19.179Z,5.17
2018-09-03T00:21:48.163Z,7.40
2018-09-03T00:24:16.517Z,7.50
2018-09-03T00:26:44.847Z,6.77
2018-09-03T00:29:13.332Z,6.33
2018-09-03T00:31:46.877Z,6.00
2018-09-03T00:34:20.596Z,7.40
2018-09-03T00:36:54.255Z,5.57
2018-09-03T00:39:27.979Z,6.57
2018-09-03T00:42:01.655Z,6.30
2018-09-03T00:44:35.279Z,7.33
2018-09-03T00:47:08.915Z,6.73
2018-09-03T00:49:37.347Z,6.67
2018-09-03T00:52:05.802Z,6.73
2018-09-03T00:54:35.059Z,6.60
2018-09-03T00:57:03.427Z,6.63
2018-09-03T00:59:31.812Z,8.30
2018-09-03T01:02:00.145Z,8.17
2018-09-03T01:04:28.610Z,8.13
2018-09-03T01:06:57.024Z,6.43
2018-09-03T01:09:25.382Z,8.30
2018-09-03T01:11:53.730Z,6.80
2018-09-03T01:14:22.073Z,7.93
2018-09-03T01:16:50.393Z,7.90
2018-09-03T01:19:18.800Z,7.90
2018-09-03T01:21:47.169Z,7.93
2018-09-03T01:24:15.526Z,7.67
2018-09-03T01:26:43.927Z,7.73
2018-09-03T01:29:12.257Z,8.30
2018-09-03T01:31:40.623Z,8.13
2018-09-03T01:34:09.099Z,8.20
2018-09-03T01:36:37.527Z,11.63
2018-09-03T01:39:07.788Z,6.97
2018-09-03T01:41:36.187Z,8.03
2018-09-03T01:44:04.586Z,8.10
2018-09-03T01:46:33.007Z,11.30
2018-09-03T01:49:01.294Z,11.37
2018-09-03T01:51:29.640Z,7.77
2018-09-03T01:53:57.993Z,10.37
2018-09-03T01:56:26.347Z,8.63
2018-09-03T01:58:54.689Z,9.00
2018-09-03T02:01:23.333Z,7.67
2018-09-03T02:03:51.689Z,7.57
2018-09-03T02:06:20.347Z,9.50
2018-09-03T02:08:48.713Z,7.80
2018-09-03T02:11:17.077Z,9.33
2018-09-03T02:13:45.459Z,7.50
2018-09-03T02:16:13.803Z,9.43
2018-09-03T02:18:42.348Z,7.10
2018-09-03T02:21:10.751Z,11.00
2018-09-03T02:23:39.515Z,7.67
2018-09-03T02:26:07.878Z,8.20
2018-09-03T02:28:36.278Z,9.03
2018-09-03T02:31:04.637Z,8.37
2018-09-03T02:33:33.032Z,7.87
2018-09-03T02:36:01.420Z,9.90
2018-09-03T02:38:30.122Z,8.53
2018-09-03T02:40:58.447Z,8.63
2018-09-03T02:43:27.111Z,11.73
2018-09-03T02:45:55.423Z,7.53
2018-09-03T02:48:23.800Z,10.23
2018-09-03T02:50:52.124Z,11.20
2018-09-03T02:53:20.539Z,10.30
2018-09-03T02:55:48.926Z,8.60
2018-09-03T02:58:17.290Z,10.10
2018-09-03T03:00:45.618Z,9.30
2018-09-03T03:03:14.075Z,11.90
2018-09-03T03:05:42.471Z,8.90
2018-09-03T03:08:10.817Z,10.50
2018-09-03T03:10:39.157Z,10.90
2018-09-03T03:13:07.524Z,10.90
2018-09-03T03:15:36.663Z,10.83
2018-09-03T03:18:05.413Z,13.07
2018-09-03T03:20:33.881Z,11.30
2018-09-03T03:23:02.224Z,11.50
2018-09-03T03:25:30.591Z,13.53
2018-09-03T03:27:58.914Z,13.50
2018-09-03T03:30:27.287Z,10.00
2018-09-03T03:32:55.638Z,10.60
2018-09-03T03:35:24.027Z,11.63
2018-09-03T03:37:52.402Z,11.50
2018-09-03T03:40:20.755Z,12.77
2018-09-03T03:42:53.279Z,11.70
2018-09-03T03:45:21.650Z,11.00
2018-09-03T03:47:50.028Z,10.57
2018-09-03T03:50:18.434Z,10.60
2018-09-03T03:52:46.828Z,10.83
2018-09-03T03:55:15.255Z,12.30
2018-09-03T03:57:43.573Z,11.33
2018-09-03T04:00:11.915Z,12.47
2018-09-03T04:02:40.281Z,12.97
2018-09-03T04:05:08.703Z,11.53
2018-09-03T04:07:37.057Z,11.77
2018-09-03T04:10:06.042Z,11.67
2018-09-03T04:12:34.446Z,10.03
2018-09-03T04:15:02.807Z,10.30
2018-09-03T04:17:31.530Z,11.00
2018-09-03T04:20:04.205Z,13.80
2018-09-03T04:22:33.623Z,9.93
2018-09-03T04:25:02.891Z,10.37
2018-09-03T04:27:31.578Z,13.30
2018-09-03T04:29:59.953Z,13.83
2018-09-03T04:32:29.285Z,10.93
2018-09-03T04:34:57.787Z,11.97
2018-09-03T04:37:26.178Z,12.40
2018-09-03T04:39:55.023Z,14.73
2018-09-03T04:42:23.388Z,12.40
2018-09-03T04:44:51.751Z,10.43
2018-09-03T04:47:20.109Z,10.80
2018-09-03T04:49:48.519Z,11.83
2018-09-03T04:52:16.883Z,11.57
2018-09-03T04:54:45.455Z,11.77
2018-09-03T04:57:13.690Z,11.10
2018-09-03T04:59:42.087Z,12.30
2018-09-03T05:02:10.444Z,13.33
2018-09-03T05:04:38.818Z,10.50
2018-09-03T05:07:07.213Z,10.73
2018-09-03T05:09:35.618Z,12.27
2018-09-03T05:12:04.034Z,9.80
2018-09-03T05:14:32.570Z,11.27
2018-09-03T05:17:01.799Z,11.90
2018-09-03T05:19:30.143Z,12.90
2018-09-03T05:21:58.515Z,10.73
2018-09-03T05:24:26.868Z,14.73
2018-09-03T05:26:55.304Z,11.40
2018-09-03T05:29:24.054Z,10.80
2018-09-03T05:31:52.842Z,12.73
2018-09-03T05:34:21.231Z,14.07
2018-09-03T05:36:50.253Z,11.47
2018-09-03T05:39:18.608Z,16.13
2018-09-03T05:41:46.969Z,12.17
2018-09-03T05:44:15.331Z,13.80
2018-09-03T05:46:44.319Z,14.83
2018-09-03T05:49:12.672Z,13.60
2018-09-03T05:51:41.086Z,13.20
2018-09-03T05:54:09.459Z,15.30
2018-09-03T05:56:37.963Z,14.23
2018-09-03T05:59:06.417Z,12.30
2018-09-03T06:01:34.737Z,14.23
2018-09-03T06:04:03.116Z,14.37
2018-09-03T06:06:31.467Z,15.07
2018-09-03T06:08:59.856Z,14.00
2018-09-03T06:11:28.244Z,16.50
2018-09-03T06:13:56.802Z,18.33
2018-09-03T06:16:29.966Z,15.73
2018-09-03T06:18:58.286Z,17.60
2018-09-03T06:21:30.498Z,18.10
2018-09-03T06:23:59.103Z,23.47
2018-09-03T06:26:27.462Z,17.60
2018-09-03T06:28:56.773Z,17.40
2018-09-03T06:31:25.187Z,17.07
2018-09-03T06:33:53.647Z,17.27
2018-09-03T06:36:21.983Z,17.30
2018-09-03T06:38:50.371Z,14.83
2018-09-03T06:41:18.814Z,13.60
2018-09-03T06:43:47.446Z,15.10
2018-09-03T06:46:15.834Z,15.07
2018-09-03T06:48:44.165Z,14.47
2018-09-03T06:51:12.511Z,14.73
2018-09-03T06:53:41.008Z,14.97
2018-09-03T06:56:09.420Z,17.07
2018-09-03T06:58:37.750Z,16.00
2018-09-03T07:01:06.285Z,16.50
2018-09-03T07:03:34.653Z,16.90
2018-09-03T07:06:03.378Z,16.07
2018-09-03T07:08:31.805Z,13.93
2018-09-03T07:11:00.810Z,15.60
2018-09-03T07:13:29.276Z,16.67
2018-09-03T07:15:57.757Z,14.73
2018-09-03T07:18:26.126Z,12.93
2018-09-03T07:20:54.745Z,14.07
2018-09-03T07:23:23.170Z,16.60
2018-09-03T07:25:51.801Z,15.73
2018-09-03T07:28:20.177Z,16.67
2018-09-03T07:30:48.560Z,14.97
2018-09-03T07:33:18.211Z,14.40
2018-09-03T07:35:46.677Z,15.57
2018-09-03T07:38:15.098Z,14.80
2018-09-03T07:40:43.619Z,15.67
2018-09-03T07:43:11.975Z,15.17
2018-09-03T07:45:40.401Z,17.43
2018-09-03T07:48:08.834Z,17.43
2018-09-03T07:50:37.203Z,16.77
2018-09-03T07:53:05.609Z,17.83
2018-09-03T07:55:34.037Z,19.53
2018-09-03T07:58:02.775Z,17.40
2018-09-03T08:00:31.128Z,17.43
2018-09-03T08:02:59.528Z,15.50
2018-09-03T08:05:27.909Z,17.70
2018-09-03T08:07:56.275Z,15.67
2018-09-03T08:10:24.665Z,20.10
2018-09-03T08:12:53.139Z,15.43
2018-09-03T08:15:21.503Z,17.23
2018-09-03T08:17:49.830Z,18.47
2018-09-03T08:20:18.471Z,18.30
2018-09-03T08:22:46.839Z,19.20
2018-09-03T08:25:15.942Z,23.33
2018-09-03T08:27:44.309Z,21.50
2018-09-03T08:30:12.720Z,24.40
2018-09-03T08:32:41.089Z,19.53
2018-09-03T08:35:09.560Z,18.20
2018-09-03T08:37:37.923Z,22.00
2018-09-03T08:40:06.369Z,20.30
2018-09-03T08:42:34.746Z,22.20
2018-09-03T08:45:03.135Z,18.13
2018-09-03T08:47:31.528Z,20.30
2018-09-03T08:49:59.970Z,20.23
2018-09-03T08:52:28.333Z,17.90
2018-09-03T08:54:56.800Z,23.13
2018-09-03T08:57:25.198Z,18.77
2018-09-03T08:59:53.573Z,19.37
2018-09-03T09:02:21.987Z,23.63
2018-09-03T09:04:50.405Z,17.00
2018-09-03T09:07:18.950Z,19.00
2018-09-03T09:09:47.301Z,22.13
2018-09-03T09:12:15.807Z,19.30
2018-09-03T09:14:44.217Z,21.90
2018-09-03T09:17:13.340Z,19.23
2018-09-03T09:19:41.697Z,19.43
2018-09-03T09:22:10.065Z,22.10
2018-09-03T09:24:38.463Z,24.20
2018-09-03T09:27:07.366Z,17.07
2018-09-03T09:29:35.729Z,19.20
2018-09-03T09:32:04.127Z,26.00
2018-09-03T09:34:32.490Z,18.60
2018-09-03T09:37:00.977Z,18.47
2018-09-03T09:39:29.357Z,17.37
2018-09-03T09:41:57.763Z,16.70
2018-09-03T09:44:26.196Z,17.37
2018-09-03T09:46:54.601Z,17.53
2018-09-03T09:49:23.346Z,15.40
2018-09-03T09:51:51.736Z,17.17
2018-09-03T09:54:20.118Z,15.70
2018-09-03T09:56:48.534Z,15.10
2018-09-03T09:59:16.902Z,17.97
2018-09-03T10:01:45.575Z,17.00
2018-09-03T10:04:14.044Z,14.40
2018-09-03T10:06:42.336Z,15.30
2018-09-03T10:09:10.708Z,16.27
2018-09-03T10:11:39.086Z,17.40
2018-09-03T10:14:07.541Z,13.40
2018-09-03T10:16:36.029Z,15.93
2018-09-03T10:19:04.438Z,15.20
2018-09-03T10:21:32.890Z,16.77
2018-09-03T10:24:01.200Z,14.20
2018-09-03T10:26:29.591Z,17.43
2018-09-03T10:28:57.958Z,13.33
2018-09-03T10:31:26.303Z,15.23
2018-09-03T10:33:54.698Z,14.33
2018-09-03T10:36:23.047Z,13.03
2018-09-03T10:38:51.426Z,15.37
2018-09-03T10:41:19.807Z,13.63
2018-09-03T10:43:48.174Z,18.23
2018-09-03T10:46:16.544Z,14.73
2018-09-03T10:48:44.903Z,15.53
2018-09-03T10:51:13.272Z,14.90
2018-09-03T10:53:41.662Z,13.27
2018-09-03T10:56:10.566Z,15.13
2018-09-03T10:58:38.908Z,16.10
2018-09-03T11:01:07.678Z,16.70
2018-09-03T11:03:36.032Z,16.77
2018-09-03T11:06:04.642Z,21.47
2018-09-03T11:08:33.032Z,15.07
2018-09-03T11:11:01.426Z,16.23
2018-09-03T11:13:29.895Z,14.80
2018-09-03T11:15:58.243Z,14.37
2018-09-03T11:18:28.172Z,14.23
2018-09-03T11:20:56.618Z,15.63
2018-09-03T11:23:24.935Z,15.00
2018-09-03T11:25:53.319Z,14.30
2018-09-03T11:28:22.064Z,14.90
2018-09-03T11:30:50.454Z,16.53
2018-09-03T11:33:18.835Z,15.53
2018-09-03T11:35:47.228Z,15.63
2018-09-03T11:38:15.682Z,13.87
2018-09-03T11:40:44.036Z,13.90
2018-09-03T11:43:12.669Z,16.00
2018-09-03T11:45:40.994Z,14.80
2018-09-03T11:48:09.347Z,13.97
2018-09-03T11:50:38.074Z,15.47
2018-09-03T11:53:06.451Z,13.00
2018-09-03T11:55:34.816Z,17.07
2018-09-03T11:58:03.240Z,15.93
2018-09-03T12:00:31.822Z,18.63
2018-09-03T12:03:00.481Z,14.17
2018-09-03T12:05:29.291Z,17.50
2018-09-03T12:07:57.816Z,17.20
2018-09-03T12:10:26.218Z,20.43
2018-09-03T12:12:54.633Z,16.90
2018-09-03T12:15:30.518Z,14.30
2018-09-03T12:17:58.974Z,16.27
2018-09-03T12:20:27.353Z,18.03
2018-09-03T12:22:55.742Z,18.07
2018-09-03T12:25:24.132Z,16.93
2018-09-03T12:27:52.499Z,15.27
2018-09-03T12:30:20.865Z,16.10
2018-09-03T12:32:49.291Z,15.57
2018-09-03T12:35:17.653Z,16.67
2018-09-03T12:37:46.079Z,15.93
2018-09-03T12:40:14.619Z,20.73
2018-09-03T12:42:42.992Z,18.60
2018-09-03T12:45:11.394Z,18.60
2018-09-03T12:47:39.742Z,15.30
2018-09-03T12:50:08.205Z,17.10
2018-09-03T12:52:36.489Z,16.83
2018-09-03T12:55:05.096Z,20.40
2018-09-03T12:57:33.435Z,24.90
2018-09-03T13:00:05.152Z,18.10
2018-09-03T13:02:30.225Z,18.70
2018-09-03T13:04:58.595Z,19.53
2018-09-03T13:07:26.972Z,18.83
2018-09-03T13:09:55.387Z,17.70
2018-09-03T13:12:23.784Z,14.50
2018-09-03T13:14:52.190Z,16.00
2018-09-03T13:17:20.581Z,16.70
2018-09-03T13:19:48.960Z,17.33
2018-09-03T13:22:17.319Z,17.27
2018-09-03T13:24:45.762Z,15.67
2018-09-03T13:27:14.167Z,15.67
2018-09-03T13:29:42.504Z,14.90
2018-09-03T13:32:10.892Z,13.30
2018-09-03T13:34:39.267Z,14.93
2018-09-03T13:37:07.709Z,18.27
2018-09-03T13:39:36.075Z,20.10
2018-09-03T13:42:04.597Z,15.73
2018-09-03T13:44:32.937Z,18.63
2018-09-03T13:47:01.603Z,19.33
2018-09-03T13:49:29.972Z,23.03
2018-09-03T13:51:58.291Z,16.30
2018-09-03T13:54:26.915Z,18.13
2018-09-03T13:56:55.299Z,14.80
2018-09-03T13:59:23.664Z,14.43
2018-09-03T14:01:51.991Z,18.20
2018-09-03T14:04:20.381Z,15.67
2018-09-03T14:06:48.748Z,15.20
2018-09-03T14:09:17.115Z,14.53
2018-09-03T14:11:45.509Z,18.70
2018-09-03T14:14:13.908Z,13.60
2018-09-03T14:16:42.279Z,15.03
2018-09-03T14:19:10.678Z,13.73
2018-09-03T14:21:39.285Z,14.17
2018-09-03T14:24:08.191Z,14.20
2018-09-03T14:26:36.593Z,15.43
2018-09-03T14:29:09.406Z,17.10
2018-09-03T14:31:37.762Z,13.60
2018-09-03T14:34:06.138Z,14.40
2018-09-03T14:36:34.525Z,12.93
2018-09-03T14:39:03.199Z,12.30
2018-09-03T14:41:31.582Z,13.67
2018-09-03T14:43:59.994Z,13.50
2018-09-03T14:46:28.379Z,14.13
2018-09-03T14:48:56.748Z,13.43
2018-09-03T14:51:25.221Z,14.43
2018-09-03T14:53:53.610Z,15.07
2018-09-03T14:56:22.015Z,12.60
2018-09-03T14:58:50.368Z,13.07
2018-09-03T15:01:18.745Z,12.77
2018-09-03T15:03:47.218Z,13.40
2018-09-03T15:06:15.638Z,13.67
2018-09-03T15:08:44.283Z,13.07
2018-09-03T15:11:12.694Z,14.30
2018-09-03T15:13:41.179Z,14.03
2018-09-03T15:16:09.556Z,14.37
2018-09-03T15:18:38.020Z,16.23
2018-09-03T15:21:06.405Z,14.33
2018-09-03T15:23:34.794Z,13.50
2018-09-03T15:26:03.197Z,11.50
2018-09-03T15:28:31.619Z,13.53
2018-09-03T15:30:59.878Z,13.87
2018-09-03T15:33:28.254Z,12.13
2018-09-03T15:35:56.623Z,14.00
2018-09-03T15:38:24.987Z,13.07
2018-09-03T15:40:53.364Z,13.03
2018-09-03T15:43:21.828Z,12.63
2018-09-03T15:45:50.487Z,14.80
2018-09-03T15:48:18.893Z,14.33
2018-09-03T15:50:47.433Z,15.13
2018-09-03T15:53:16.568Z,12.67
2018-09-03T15:55:44.982Z,12.57
2018-09-03T15:58:14.015Z,14.90
2018-09-03T16:00:42.383Z,13.30
2018-09-03T16:03:10.822Z,13.03
2018-09-03T16:05:39.270Z,11.37
2018-09-03T16:08:07.700Z,12.10
2018-09-03T16:10:36.085Z,14.10
2018-09-03T16:13:04.659Z,12.63
2018-09-03T16:15:33.417Z,13.03
2018-09-03T16:18:01.863Z,11.73
2018-09-03T16:20:30.270Z,12.23
2018-09-03T16:22:58.652Z,11.60
2018-09-03T16:25:27.077Z,11.93
2018-09-03T16:27:56.093Z,12.83
2018-09-03T16:30:24.346Z,13.27
2018-09-03T16:32:52.682Z,14.00
2018-09-03T16:35:21.093Z,17.07
2018-09-03T16:37:49.499Z,12.00
2018-09-03T16:40:17.885Z,11.00
2018-09-03T16:42:46.371Z,12.10
2018-09-03T16:45:14.795Z,14.77
2018-09-03T16:47:43.154Z,11.90
2018-09-03T16:50:15.595Z,11.83
2018-09-03T16:52:44.015Z,12.20
2018-09-03T16:55:12.429Z,10.97
2018-09-03T16:57:40.807Z,13.50
2018-09-03T17:00:09.246Z,11.63
2018-09-03T17:02:37.668Z,10.83
2018-09-03T17:05:06.071Z,11.23
2018-09-03T17:07:34.576Z,12.63
2018-09-03T17:10:03.117Z,10.97
2018-09-03T17:12:31.597Z,10.37
2018-09-03T17:14:59.947Z,10.93
2018-09-03T17:17:28.460Z,11.70
2018-09-03T17:19:56.900Z,11.13
2018-09-03T17:22:25.303Z,11.67
2018-09-03T17:24:54.654Z,9.97
2018-09-03T17:27:23.066Z,10.70
2018-09-03T17:29:51.801Z,10.80
2018-09-03T17:32:20.198Z,13.27
2018-09-03T17:34:48.573Z,13.20
2018-09-03T17:37:17.034Z,13.23
2018-09-03T17:39:45.484Z,15.93
2018-09-03T17:42:13.857Z,12.77
2018-09-03T17:44:42.304Z,13.60
2018-09-03T17:47:10.696Z,14.30
2018-09-03T17:49:39.105Z,12.20
2018-09-03T17:52:07.696Z,12.97
2018-09-03T17:54:36.083Z,12.47
2018-09-03T17:57:04.530Z,11.47
2018-09-03T17:59:33.004Z,12.33
2018-09-03T18:02:01.549Z,12.30
2018-09-03T18:04:29.934Z,11.10
2018-09-03T18:06:58.316Z,12.83
2018-09-03T18:09:26.780Z,12.27
2018-09-03T18:11:55.168Z,12.20
2018-09-03T18:14:23.593Z,12.10
2018-09-03T18:16:52.041Z,11.23
2018-09-03T18:19:20.449Z,13.83
2018-09-03T18:21:48.939Z,12.60
2018-09-03T18:24:17.364Z,12.00
2018-09-03T18:26:45.783Z,10.73
2018-09-03T18:29:14.782Z,11.90
2018-09-03T18:31:43.181Z,11.63
2018-09-03T18:34:11.608Z,12.37
2018-09-03T18:36:40.609Z,11.50
2018-09-03T18:39:08.999Z,12.13
2018-09-03T18:41:37.621Z,12.07
2018-09-03T18:44:06.209Z,11.37
2018-09-03T18:46:34.654Z,11.57
2018-09-03T18:49:03.806Z,11.97
2018-09-03T18:51:32.275Z,13.07
2018-09-03T18:54:00.781Z,14.63
2018-09-03T18:56:29.409Z,13.33
2018-09-03T18:58:57.875Z,13.27
2018-09-03T19:01:26.573Z,13.97
2018-09-03T19:03:54.999Z,11.20
2018-09-03T19:06:24.282Z,13.10
2018-09-03T19:08:52.979Z,13.30
2018-09-03T19:11:21.404Z,13.07
2018-09-03T19:13:50.072Z,11.90
2018-09-03T19:16:18.518Z,12.67
2018-09-03T19:18:47.599Z,15.10
2018-09-03T19:21:16.220Z,12.40
2018-09-03T19:23:44.645Z,14.27
2018-09-03T19:26:13.094Z,14.70
2018-09-03T19:28:41.799Z,16.40
2018-09-03T19:31:10.244Z,15.57
2018-09-03T19:33:38.682Z,15.57
2018-09-03T19:36:07.222Z,17.17
2018-09-03T19:38:35.638Z,14.43
2018-09-03T19:41:04.174Z,14.47
2018-09-03T19:43:32.597Z,15.20
2018-09-03T19:46:01.075Z,18.00
2018-09-03T19:48:29.474Z,14.63
2018-09-03T19:50:57.885Z,14.80
2018-09-03T19:53:26.332Z,18.87
2018-09-03T19:55:54.735Z,17.40
2018-09-03T19:58:23.212Z,17.10
2018-09-03T20:00:51.636Z,16.33
2018-09-03T20:03:20.035Z,17.10
2018-09-03T20:05:48.512Z,16.60
2018-09-03T20:08:16.984Z,18.03
2018-09-03T20:10:45.432Z,15.10
2018-09-03T20:13:13.831Z,16.70
2018-09-03T20:15:42.229Z,17.00
2018-09-03T20:18:10.737Z,17.50
2018-09-03T20:20:39.143Z,18.33
2018-09-03T20:23:07.703Z,15.97
2018-09-03T20:25:35.943Z,17.20
2018-09-03T20:28:04.336Z,17.63
2018-09-03T20:30:32.715Z,18.33
2018-09-03T20:33:01.146Z,17.53
2018-09-03T20:35:29.528Z,18.67
2018-09-03T20:37:57.972Z,17.73
2018-09-03T20:40:26.374Z,15.70
2018-09-03T20:42:54.938Z,16.47
2018-09-03T20:45:23.267Z,17.33
2018-09-03T20:47:51.779Z,17.50
2018-09-03T20:50:20.176Z,16.87
2018-09-03T20:52:48.714Z,16.07
2018-09-03T20:55:17.128Z,15.23
2018-09-03T20:57:45.558Z,14.87
2018-09-03T21:00:13.960Z,15.50
2018-09-03T21:02:42.372Z,15.17
2018-09-03T21:05:10.775Z,15.97
2018-09-03T21:07:39.169Z,16.00
2018-09-03T21:10:07.754Z,15.93
2018-09-03T21:12:36.321Z,17.13
2018-09-03T21:15:04.841Z,19.90
2018-09-03T21:17:33.241Z,20.90
2018-09-03T21:20:01.687Z,21.23
2018-09-03T21:22:30.105Z,22.70
2018-09-03T21:24:58.520Z,24.60
2018-09-03T21:27:26.907Z,23.60
2018-09-03T21:29:55.329Z,22.53
2018-09-03T21:32:23.702Z,22.57
2018-09-03T21:34:52.144Z,25.47
2018-09-03T21:37:20.968Z,23.73
2018-09-03T21:39:50.116Z,26.20
2018-09-03T21:42:18.471Z,27.00
2018-09-03T21:44:46.957Z,29.07
2018-09-03T21:47:15.419Z,26.50
2018-09-03T21:49:43.836Z,26.30
2018-09-03T21:52:12.241Z,23.80
2018-09-03T21:54:40.690Z,26.47
2018-09-03T21:57:09.080Z,24.70
2018-09-03T21:59:37.483Z,25.30
2018-09-03T22:02:08.475Z,25.30
2018-09-03T22:04:37.794Z,25.90
2018-09-03T22:07:06.189Z,25.33
2018-09-03T22:09:34.589Z,25.97
2018-09-03T22:12:03.012Z,27.87
2018-09-03T22:14:31.417Z,24.27
2018-09-03T22:17:00.032Z,26.73
2018-09-03T22:19:28.416Z,26.30
2018-09-03T22:21:56.901Z,26.07
2018-09-03T22:24:25.324Z,25.73
2018-09-03T22:26:53.767Z,28.73
2018-09-03T22:29:22.164Z,26.87
2018-09-03T22:31:50.647Z,27.77
2018-09-03T22:34:19.082Z,27.80
2018-09-03T22:36:47.494Z,28.87
2018-09-03T22:39:15.879Z,28.30
2018-09-03T22:41:44.279Z,29.83
2018-09-03T22:44:12.642Z,27.90
2018-09-03T22:46:41.045Z,27.00
2018-09-03T22:49:09.450Z,29.40
2018-09-03T22:51:37.933Z,28.20
2018-09-03T22:54:06.267Z,28.30
2018-09-03T22:56:34.634Z,26.97
2018-09-03T22:59:03.014Z,29.30
2018-09-03T23:01:31.380Z,28.37
2018-09-03T23:03:59.817Z,29.30
2018-09-03T23:06:28.200Z,31.43
2018-09-03T23:08:56.723Z,29.37
2018-09-03T23:11:25.102Z,30.00
2018-09-03T23:13:53.491Z,29.97
2018-09-03T23:16:21.855Z,26.93
2018-09-03T23:18:50.266Z,29.57
2018-09-03T23:21:18.749Z,27.97
2018-09-03T23:23:47.156Z,26.30
2018-09-03T23:26:15.518Z,30.00
2018-09-03T23:28:43.919Z,30.00
2018-09-03T23:31:12.286Z,27.10
2018-09-03T23:33:40.658Z,29.10
2018-09-03T23:36:09.014Z,29.13
2018-09-03T23:38:37.368Z,31.20
2018-09-03T23:41:05.907Z,29.60
2018-09-03T23:43:34.403Z,30.13
2018-09-03T23:46:02.833Z,32.47
2018-09-03T23:48:31.258Z,27.73
2018-09-03T23:50:59.657Z,29.30
2018-09-03T23:53:28.038Z,30.40
2018-09-03T23:55:56.506Z,32.60
2018-09-03T23:58:24.849Z,31.47
